Time;durP1;ratioP1;P1;durP2;ratioP2;P2;SDS_P1;SDS_P2;PMS_P1;PMS_P2;Temp;Humidity;BMP_temperature;BMP_pressure;BME280_temperature;BME280_humidity;BME280_pressure;Samples;Min_cycle;Max_cycle;Signal;HPM_P1;HPM_P2
2022/08/16 00:00:47;;;;;;;25.58;24.23;;;;;;;;;;5035813;28;20436;-61
2022/08/16 00:03:12;;;;;;;24.48;23.17;;;;;;;;;;5038340;28;20029;-61
2022/08/16 00:05:37;;;;;;;23.75;22.48;;;;;;;;;;5035280;28;20025;-61
2022/08/16 00:08:03;;;;;;;25.63;24.25;;;;;;;;;;5038215;28;20198;-61
2022/08/16 00:10:32;;;;;;;24.35;23.05;;;;;;;;;;5037274;28;20086;-61
2022/08/16 00:12:59;;;;;;;29.42;27.83;;;;;;;;;;5037928;28;20173;-61
2022/08/16 00:15:32;;;;;;;25.13;23.70;;;;;;;;;;5038510;28;20442;-61
2022/08/16 00:17:57;;;;;;;23.58;22.33;;;;;;;;;;5038756;28;20029;-61
2022/08/16 00:20:23;;;;;;;26.50;25.10;;;;;;;;;;5036982;28;20683;-61
2022/08/16 00:22:49;;;;;;;24.63;23.33;;;;;;;;;;5038191;28;20528;-61
2022/08/16 00:25:16;;;;;;;24.63;23.30;;;;;;;;;;5034619;28;20096;-60
2022/08/16 00:27:42;;;;;;;26.30;24.85;;;;;;;;;;5033412;28;20032;-60
2022/08/16 00:30:10;;;;;;;26.13;24.75;;;;;;;;;;5035594;28;20095;-60
2022/08/16 00:32:38;;;;;;;23.63;22.38;;;;;;;;;;5035407;28;20047;-61
2022/08/16 00:35:05;;;;;;;20.80;19.70;;;;;;;;;;5038604;28;20031;-62
2022/08/16 00:37:30;;;;;;;25.75;24.40;;;;;;;;;;5037245;28;20055;-62
2022/08/16 00:39:56;;;;;;;24.15;22.85;;;;;;;;;;5036204;28;20443;-62
2022/08/16 00:42:21;;;;;;;26.30;24.83;;;;;;;;;;5036268;28;20021;-62
2022/08/16 00:44:55;;;;;;;24.50;23.10;;;;;;;;;;5036191;28;20421;-62
2022/08/16 00:47:23;;;;;;;26.50;25.10;;;;;;;;;;5038007;28;20458;-62
2022/08/16 00:49:48;;;;;;;27.67;25.85;;;;;;;;;;5039212;28;20055;-62
2022/08/16 00:52:14;;;;;;;25.92;24.42;;;;;;;;;;5036226;28;20092;-61
2022/08/16 00:54:39;;;;;;;28.17;26.67;;;;;;;;;;5034961;28;20061;-61
2022/08/16 00:57:06;;;;;;;30.40;28.60;;;;;;;;;;5037450;28;20513;-62
2022/08/16 00:59:34;;;;;;;26.33;24.92;;;;;;;;;;5035307;28;20040;-62
2022/08/16 01:02:00;;;;;;;26.98;25.55;;;;;;;;;;5034173;28;20026;-62
2022/08/16 01:04:27;;;;;;;27.08;25.58;;;;;;;;;;5036752;28;20443;-62
2022/08/16 01:06:53;;;;;;;27.77;26.27;;;;;;;;;;5039038;28;20494;-62
2022/08/16 01:09:19;;;;;;;29.10;27.55;;;;;;;;;;5036198;28;20032;-62
2022/08/16 01:11:46;;;;;;;31.33;29.67;;;;;;;;;;5036600;28;20037;-62
2022/08/16 01:14:17;;;;;;;28.38;26.77;;;;;;;;;;5035160;28;20366;-62
2022/08/16 01:16:45;;;;;;;31.65;30.05;;;;;;;;;;5037075;28;20028;-62
2022/08/16 01:19:31;;;;;;;31.75;30.00;;;;;;;;;;5037743;28;20029;-62
2022/08/16 01:22:00;;;;;;;27.13;25.60;;;;;;;;;;5036137;28;20086;-62
2022/08/16 01:24:25;;;;;;;24.67;23.38;;;;;;;;;;5036329;28;20032;-62
2022/08/16 01:26:58;;;;;;;28.85;27.35;;;;;;;;;;5035422;28;20538;-62
2022/08/16 01:29:33;;;;;;;31.67;30.05;;;;;;;;;;5036502;28;20383;-61
2022/08/16 01:31:58;;;;;;;33.75;31.98;;;;;;;;;;5036358;28;20021;-62
2022/08/16 01:34:24;;;;;;;28.77;27.27;;;;;;;;;;5038165;28;20040;-62
2022/08/16 01:36:57;;;;;;;33.67;31.92;;;;;;;;;;5036584;28;20388;-62
2022/08/16 01:39:22;;;;;;;27.25;25.83;;;;;;;;;;5035506;28;20563;-61
2022/08/16 01:41:48;;;;;;;32.03;30.35;;;;;;;;;;5036764;28;20113;-62
2022/08/16 01:44:13;;;;;;;33.65;31.90;;;;;;;;;;5037712;28;20029;-61
2022/08/16 01:46:43;;;;;;;30.33;28.73;;;;;;;;;;5036503;28;20426;-62
2022/08/16 01:49:22;;;;;;;32.70;30.95;;;;;;;;;;5036212;28;20087;-62
2022/08/16 01:51:53;;;;;;;36.08;34.20;;;;;;;;;;5036358;28;20074;-62
2022/08/16 01:54:19;;;;;;;42.38;40.17;;;;;;;;;;5035157;28;20027;-62
2022/08/16 01:56:45;;;;;;;38.70;36.70;;;;;;;;;;5036794;28;20033;-62
2022/08/16 01:59:13;;;;;;;39.22;37.20;;;;;;;;;;5031887;28;20516;-62
2022/08/16 02:01:39;;;;;;;45.03;42.75;;;;;;;;;;5036506;28;20039;-62
2022/08/16 02:04:04;;;;;;;49.50;47.03;;;;;;;;;;5034645;28;20101;-62
2022/08/16 02:06:30;;;;;;;50.28;47.67;;;;;;;;;;5037221;28;20097;-61
2022/08/16 02:08:56;;;;;;;47.63;45.20;;;;;;;;;;5034668;28;20035;-62
2022/08/16 02:11:23;;;;;;;55.60;52.83;;;;;;;;;;5034416;28;20025;-62
2022/08/16 02:13:49;;;;;;;51.85;49.20;;;;;;;;;;5035601;28;20033;-62
2022/08/16 02:16:15;;;;;;;62.95;59.70;;;;;;;;;;5034642;28;20041;-62
2022/08/16 02:18:41;;;;;;;57.80;54.90;;;;;;;;;;5034168;28;20037;-62
2022/08/16 02:21:07;;;;;;;65.90;62.58;;;;;;;;;;5036664;28;20025;-62
2022/08/16 02:23:36;;;;;;;57.72;54.85;;;;;;;;;;5033553;28;20093;-62
2022/08/16 02:26:01;;;;;;;60.38;57.38;;;;;;;;;;5035874;28;20494;-61
2022/08/16 02:28:27;;;;;;;52.72;50.05;;;;;;;;;;5037151;28;20039;-62
2022/08/16 02:30:55;;;;;;;50.85;48.30;;;;;;;;;;5036150;28;20037;-62
2022/08/16 02:33:23;;;;;;;54.60;51.80;;;;;;;;;;5033275;28;20045;-62
2022/08/16 02:35:49;;;;;;;51.10;48.53;;;;;;;;;;5033718;28;20078;-62
2022/08/16 02:38:14;;;;;;;59.45;56.47;;;;;;;;;;5037562;28;20098;-61
2022/08/16 02:40:40;;;;;;;62.85;59.70;;;;;;;;;;5030979;28;20044;-62
2022/08/16 02:43:05;;;;;;;61.95;58.88;;;;;;;;;;5037544;28;20116;-62
2022/08/16 02:45:31;;;;;;;66.03;62.70;;;;;;;;;;5036918;28;20049;-62
2022/08/16 02:47:58;;;;;;;59.65;56.63;;;;;;;;;;5035582;28;20075;-62
2022/08/16 02:50:23;;;;;;;66.25;62.80;;;;;;;;;;5036952;28;20453;-62
2022/08/16 02:52:49;;;;;;;68.85;65.43;;;;;;;;;;5035673;28;20567;-62
2022/08/16 02:55:15;;;;;;;74.72;70.72;;;;;;;;;;5037265;28;20045;-61
2022/08/16 02:57:40;;;;;;;53.63;50.95;;;;;;;;;;5037769;28;21054;-61
2022/08/16 03:00:08;;;;;;;41.08;38.97;;;;;;;;;;5032460;28;20034;-61
2022/08/16 03:02:35;;;;;;;39.30;37.28;;;;;;;;;;5035533;28;20832;-62
2022/08/16 03:05:00;;;;;;;35.75;33.90;;;;;;;;;;5034024;28;20174;-61
2022/08/16 03:07:26;;;;;;;48.20;45.75;;;;;;;;;;5031911;28;20080;-62
2022/08/16 03:09:51;;;;;;;44.25;41.95;;;;;;;;;;5034737;28;20025;-62
2022/08/16 03:12:18;;;;;;;46.72;44.38;;;;;;;;;;5036846;28;20697;-67
2022/08/16 03:14:43;;;;;;;55.42;52.67;;;;;;;;;;5033047;28;20615;-67
2022/08/16 03:17:09;;;;;;;47.00;44.63;;;;;;;;;;5034286;28;20025;-67
2022/08/16 03:19:35;;;;;;;44.63;42.35;;;;;;;;;;5036063;28;20147;-67
2022/08/16 03:22:00;;;;;;;44.85;42.58;;;;;;;;;;5040822;28;20674;-67
2022/08/16 03:24:27;;;;;;;45.97;43.60;;;;;;;;;;5036247;28;20036;-67
2022/08/16 03:26:53;;;;;;;42.13;39.97;;;;;;;;;;5040345;28;20033;-67
2022/08/16 03:29:18;;;;;;;42.40;40.13;;;;;;;;;;5040187;28;20113;-67
2022/08/16 03:31:44;;;;;;;39.88;37.83;;;;;;;;;;5039226;28;20717;-67
2022/08/16 03:34:09;;;;;;;46.75;44.33;;;;;;;;;;5039508;28;20547;-67
2022/08/16 03:36:34;;;;;;;37.20;35.15;;;;;;;;;;5039758;28;20043;-67
2022/08/16 03:39:00;;;;;;;43.38;41.10;;;;;;;;;;5039788;28;20051;-67
2022/08/16 03:41:26;;;;;;;34.15;32.35;;;;;;;;;;5036219;28;20120;-67
2022/08/16 03:43:53;;;;;;;37.28;35.35;;;;;;;;;;5037428;28;20067;-66
2022/08/16 03:46:21;;;;;;;36.33;34.45;;;;;;;;;;5037812;28;20039;-66
2022/08/16 03:48:47;;;;;;;33.35;31.65;;;;;;;;;;5039920;28;20132;-67
2022/08/16 03:51:12;;;;;;;29.60;28.00;;;;;;;;;;5037568;28;20092;-67
2022/08/16 03:53:38;;;;;;;27.83;26.35;;;;;;;;;;5038509;28;20930;-67
2022/08/16 03:56:06;;;;;;;26.60;25.17;;;;;;;;;;5042422;28;20437;-66
2022/08/16 03:58:31;;;;;;;25.10;23.77;;;;;;;;;;5039484;28;20067;-66
2022/08/16 04:00:57;;;;;;;24.33;22.98;;;;;;;;;;5038301;28;20034;-66
2022/08/16 04:03:22;;;;;;;25.30;23.95;;;;;;;;;;5042325;28;20036;-67
2022/08/16 04:05:50;;;;;;;23.75;22.50;;;;;;;;;;5036215;28;20033;-67
2022/08/16 04:08:17;;;;;;;20.13;19.00;;;;;;;;;;5035103;28;20040;-66
2022/08/16 04:10:43;;;;;;;16.05;15.18;;;;;;;;;;5035277;28;20084;-66
2022/08/16 04:13:08;;;;;;;16.52;15.60;;;;;;;;;;5038917;28;20422;-66
2022/08/16 04:15:34;;;;;;;15.10;14.25;;;;;;;;;;5037387;28;20112;-66
2022/08/16 04:18:00;;;;;;;17.10;16.15;;;;;;;;;;5037785;28;20041;-66
2022/08/16 04:20:26;;;;;;;17.55;16.52;;;;;;;;;;5035777;28;20025;-66
2022/08/16 04:22:52;;;;;;;17.50;16.45;;;;;;;;;;5036075;28;20576;-66
2022/08/16 04:25:18;;;;;;;17.23;16.10;;;;;;;;;;5034852;28;20040;-66
2022/08/16 04:27:43;;;;;;;16.05;15.13;;;;;;;;;;5038024;28;20642;-66
2022/08/16 04:30:18;;;;;;;14.93;14.02;;;;;;;;;;5038793;28;20048;-66
2022/08/16 04:32:44;;;;;;;14.38;13.55;;;;;;;;;;5040779;28;20056;-66
2022/08/16 04:35:15;;;;;;;15.98;15.07;;;;;;;;;;5036455;28;20059;-66
2022/08/16 04:37:41;;;;;;;;;;;;;;;;;;5038445;28;20052;-66
2022/08/16 04:40:09;;;;;;;12.55;11.80;;;;;;;;;;5039596;28;19924;-66
2022/08/16 04:42:37;;;;;;;13.20;12.35;;;;;;;;;;5038690;28;20025;-66
2022/08/16 04:45:03;;;;;;;14.93;14.05;;;;;;;;;;5037048;28;20032;-67
2022/08/16 04:47:30;;;;;;;12.05;11.35;;;;;;;;;;5036978;28;20025;-67
2022/08/16 04:49:56;;;;;;;15.02;14.07;;;;;;;;;;5037654;28;20048;-67
2022/08/16 04:52:23;;;;;;;15.30;14.40;;;;;;;;;;5038186;28;20029;-68
2022/08/16 04:54:48;;;;;;;13.90;13.10;;;;;;;;;;5038661;28;20099;-67
2022/08/16 04:57:14;;;;;;;15.52;14.32;;;;;;;;;;5037425;28;20402;-67
2022/08/16 04:59:39;;;;;;;14.18;13.35;;;;;;;;;;5036415;28;20040;-66
2022/08/16 05:02:05;;;;;;;13.35;12.52;;;;;;;;;;5038899;28;20111;-67
2022/08/16 05:04:30;;;;;;;11.10;10.40;;;;;;;;;;5038745;28;20529;-66
2022/08/16 05:06:56;;;;;;;12.88;12.10;;;;;;;;;;5039801;28;20033;-67
2022/08/16 05:09:21;;;;;;;15.10;14.10;;;;;;;;;;5037329;28;20658;-66
2022/08/16 05:11:47;;;;;;;13.13;12.32;;;;;;;;;;5035775;28;20047;-66
2022/08/16 05:14:12;;;;;;;14.07;13.27;;;;;;;;;;5036557;28;20021;-66
2022/08/16 05:16:38;;;;;;;15.43;14.52;;;;;;;;;;5037790;28;20102;-67
2022/08/16 05:19:07;;;;;;;17.42;16.40;;;;;;;;;;5034971;28;20164;-66
2022/08/16 05:21:34;;;;;;;15.40;14.50;;;;;;;;;;5036749;28;20041;-66
2022/08/16 05:24:00;;;;;;;12.98;12.18;;;;;;;;;;5037121;28;20056;-67
2022/08/16 05:26:27;;;;;;;15.00;14.10;;;;;;;;;;5036690;28;20872;-67
2022/08/16 05:28:53;;;;;;;16.02;15.13;;;;;;;;;;5037815;28;20042;-66
2022/08/16 05:31:18;;;;;;;16.35;15.35;;;;;;;;;;5034723;28;20523;-66
2022/08/16 05:33:44;;;;;;;12.10;11.40;;;;;;;;;;5038063;28;21042;-65
2022/08/16 05:36:10;;;;;;;11.95;11.18;;;;;;;;;;5034266;28;20041;-66
2022/08/16 05:38:35;;;;;;;14.32;13.43;;;;;;;;;;5033229;28;20030;-65
2022/08/16 05:41:02;;;;;;;13.30;12.50;;;;;;;;;;5038630;28;20041;-66
2022/08/16 05:43:28;;;;;;;14.52;13.73;;;;;;;;;;5038708;28;20051;-65
2022/08/16 05:45:54;;;;;;;13.10;12.30;;;;;;;;;;5036518;28;20037;-65
2022/08/16 05:48:20;;;;;;;13.98;13.18;;;;;;;;;;5040360;28;20460;-65
2022/08/16 05:50:45;;;;;;;13.80;12.93;;;;;;;;;;5038975;28;20042;-65
2022/08/16 05:53:11;;;;;;;11.20;10.18;;;;;;;;;;5039548;28;20052;-65
2022/08/16 05:55:36;;;;;;;12.75;11.85;;;;;;;;;;5035525;28;20051;-64
2022/08/16 05:58:02;;;;;;;14.27;13.45;;;;;;;;;;5036148;28;20029;-64
2022/08/16 06:00:28;;;;;;;16.02;15.02;;;;;;;;;;5039174;28;20375;-64
2022/08/16 06:02:53;;;;;;;16.63;15.63;;;;;;;;;;5035917;28;20107;-64
2022/08/16 06:05:19;;;;;;;18.85;17.83;;;;;;;;;;5037034;28;20036;-64
2022/08/16 06:07:44;;;;;;;19.05;17.85;;;;;;;;;;5037132;28;20549;-65
2022/08/16 06:10:11;;;;;;;20.45;19.33;;;;;;;;;;5038066;28;20074;-64
2022/08/16 06:12:37;;;;;;;18.25;17.10;;;;;;;;;;5036521;28;20127;-64
2022/08/16 06:15:11;;;;;;;15.02;14.13;;;;;;;;;;5032926;28;20029;-64
2022/08/16 06:17:37;;;;;;;18.45;17.35;;;;;;;;;;5037534;28;20511;-65
2022/08/16 06:20:04;;;;;;;17.48;16.48;;;;;;;;;;5034993;28;20075;-65
2022/08/16 06:22:29;;;;;;;16.27;15.32;;;;;;;;;;5035968;28;20035;-64
2022/08/16 06:24:54;;;;;;;14.38;13.52;;;;;;;;;;5035246;28;20029;-65
2022/08/16 06:27:20;;;;;;;15.68;14.77;;;;;;;;;;5032448;28;20029;-64
2022/08/16 06:29:45;;;;;;;13.15;12.13;;;;;;;;;;5035781;28;20029;-64
2022/08/16 06:32:10;;;;;;;9.82;9.23;;;;;;;;;;5032554;28;20402;-64
2022/08/16 06:34:36;;;;;;;13.13;12.30;;;;;;;;;;5035660;28;20052;-64
2022/08/16 06:37:02;;;;;;;14.10;13.20;;;;;;;;;;5037211;28;20033;-63
2022/08/16 06:39:28;;;;;;;15.45;14.55;;;;;;;;;;5035509;28;20033;-64
2022/08/16 06:41:54;;;;;;;14.13;13.13;;;;;;;;;;5037670;28;20041;-63
2022/08/16 06:44:19;;;;;;;12.38;11.45;;;;;;;;;;5036064;28;20061;-64
2022/08/16 06:46:44;;;;;;;9.63;9.00;;;;;;;;;;5034363;28;20120;-63
2022/08/16 06:49:11;;;;;;;12.80;11.95;;;;;;;;;;5033178;28;20037;-63
2022/08/16 06:51:37;;;;;;;13.27;12.48;;;;;;;;;;5036430;28;20049;-63
2022/08/16 06:54:03;;;;;;;10.32;9.63;;;;;;;;;;5034772;28;20036;-63
2022/08/16 06:56:29;;;;;;;14.50;13.60;;;;;;;;;;5036650;28;20044;-63
2022/08/16 06:58:54;;;;;;;10.52;9.82;;;;;;;;;;5035574;28;20029;-63
2022/08/16 07:01:21;;;;;;;15.13;14.23;;;;;;;;;;5035614;28;20510;-63
2022/08/16 07:03:47;;;;;;;15.48;14.48;;;;;;;;;;5035668;28;20626;-63
2022/08/16 07:06:12;;;;;;;16.42;15.45;;;;;;;;;;5033399;28;20112;-63
2022/08/16 07:08:41;;;;;;;14.20;13.30;;;;;;;;;;5034555;28;20119;-63
2022/08/16 07:11:07;;;;;;;16.70;15.70;;;;;;;;;;5033986;28;20104;-63
2022/08/16 07:13:33;;;;;;;26.10;24.67;;;;;;;;;;5035197;28;20686;-63
2022/08/16 07:15:58;;;;;;;19.25;18.15;;;;;;;;;;5036635;28;20043;-62
2022/08/16 07:18:25;;;;;;;30.20;28.60;;;;;;;;;;5036972;28;20038;-62
2022/08/16 07:20:52;;;;;;;24.23;22.83;;;;;;;;;;5032383;28;20038;-63
2022/08/16 07:23:18;;;;;;;26.13;24.75;;;;;;;;;;5033954;28;20036;-63
2022/08/16 07:25:43;;;;;;;30.00;28.38;;;;;;;;;;5034647;28;20041;-62
2022/08/16 07:28:12;;;;;;;34.08;32.17;;;;;;;;;;5035865;28;20044;-62
2022/08/16 07:30:38;;;;;;;33.13;31.33;;;;;;;;;;5035506;28;20417;-63
2022/08/16 07:33:04;;;;;;;25.30;23.95;;;;;;;;;;5032064;28;20532;-62
2022/08/16 07:35:30;;;;;;;45.83;43.45;;;;;;;;;;5024467;28;20056;-63
2022/08/16 07:37:56;;;;;;;43.05;40.85;;;;;;;;;;5033378;28;20518;-62
2022/08/16 07:40:21;;;;;;;44.58;42.15;;;;;;;;;;5034056;28;20021;-62
2022/08/16 07:42:46;;;;;;;56.22;53.40;;;;;;;;;;5035690;28;20426;-62
2022/08/16 07:45:13;;;;;;;61.15;58.10;;;;;;;;;;5034799;28;20026;-62
2022/08/16 07:47:39;;;;;;;64.63;61.38;;;;;;;;;;5036951;28;20041;-61
2022/08/16 07:50:05;;;;;;;55.53;52.75;;;;;;;;;;5034356;28;20416;-62
2022/08/16 07:52:30;;;;;;;70.57;67.05;;;;;;;;;;5032205;28;20314;-62
2022/08/16 07:54:56;;;;;;;73.90;70.22;;;;;;;;;;5035051;28;20648;-62
2022/08/16 07:57:22;;;;;;;73.43;69.78;;;;;;;;;;5037893;28;20029;-62
2022/08/16 07:59:47;;;;;;;72.38;68.60;;;;;;;;;;5035873;28;20039;-62
2022/08/16 08:02:14;;;;;;;73.93;70.25;;;;;;;;;;5034339;28;20029;-61
2022/08/16 08:04:40;;;;;;;76.07;72.18;;;;;;;;;;5035808;28;20033;-61
2022/08/16 08:07:05;;;;;;;47.42;44.95;;;;;;;;;;5034214;28;20033;-61
2022/08/16 08:09:30;;;;;;;68.88;65.45;;;;;;;;;;5036548;28;20037;-61
2022/08/16 08:11:56;;;;;;;54.83;51.58;;;;;;;;;;5042246;28;20033;-61
2022/08/16 08:14:21;;;;;;;53.38;50.58;;;;;;;;;;5039096;28;20600;-61
2022/08/16 08:16:47;;;;;;;51.83;49.15;;;;;;;;;;5038650;28;20041;-60
2022/08/16 08:19:12;;;;;;;79.20;75.22;;;;;;;;;;5037622;28;20072;-61
2022/08/16 08:21:40;;;;;;;49.88;47.28;;;;;;;;;;5041221;28;20048;-61
2022/08/16 08:24:08;;;;;;;32.42;30.63;;;;;;;;;;5034766;28;20021;-62
2022/08/16 08:26:33;;;;;;;36.53;34.50;;;;;;;;;;5038819;28;20235;-61
2022/08/16 08:28:59;;;;;;;58.80;55.80;;;;;;;;;;5037494;28;20108;-60
2022/08/16 08:31:25;;;;;;;40.13;38.03;;;;;;;;;;5039774;28;20053;-60
2022/08/16 08:33:50;;;;;;;63.45;60.25;;;;;;;;;;5037043;28;20879;-61
2022/08/16 08:36:23;;;;;;;50.03;47.47;;;;;;;;;;5034380;28;20033;-61
2022/08/16 08:38:51;;;;;;;38.58;36.58;;;;;;;;;;5036959;28;20082;-61
2022/08/16 08:41:17;;;;;;;42.15;39.85;;;;;;;;;;5037803;28;20037;-61
2022/08/16 08:43:42;;;;;;;35.45;33.55;;;;;;;;;;5037650;28;20025;-61
2022/08/16 08:46:08;;;;;;;49.58;46.88;;;;;;;;;;5040931;28;20032;-61
2022/08/16 08:48:35;;;;;;;47.47;45.00;;;;;;;;;;5039898;28;20026;-61
2022/08/16 08:51:04;;;;;;;57.08;54.22;;;;;;;;;;5037078;28;20037;-61
2022/08/16 08:53:32;;;;;;;40.33;38.20;;;;;;;;;;5035648;28;20079;-62
2022/08/16 08:55:57;;;;;;;27.42;25.98;;;;;;;;;;5037572;28;20033;-63
2022/08/16 08:58:23;;;;;;;45.40;42.97;;;;;;;;;;5038826;28;20021;-62
2022/08/16 09:00:49;;;;;;;36.50;34.60;;;;;;;;;;5038187;28;20029;-62
2022/08/16 09:03:14;;;;;;;40.00;37.97;;;;;;;;;;5035114;28;20021;-60
2022/08/16 09:05:40;;;;;;;26.85;25.35;;;;;;;;;;5039167;28;20143;-60
2022/08/16 09:08:06;;;;;;;51.65;49.03;;;;;;;;;;5036717;28;20064;-60
2022/08/16 09:10:31;;;;;;;24.73;23.40;;;;;;;;;;5036328;28;20037;-60
2022/08/16 09:12:58;;;;;;;22.60;21.35;;;;;;;;;;5038000;28;20052;-60
2022/08/16 09:15:25;;;;;;;20.92;19.73;;;;;;;;;;5036899;28;20094;-60
2022/08/16 09:17:55;;;;;;;25.80;24.40;;;;;;;;;;5038199;28;20546;-60
2022/08/16 09:20:24;;;;;;;16.95;15.95;;;;;;;;;;5034922;28;20109;-60
2022/08/16 09:22:49;;;;;;;22.90;21.60;;;;;;;;;;5035353;28;20044;-60
2022/08/16 09:25:15;;;;;;;18.77;17.67;;;;;;;;;;5036130;28;20037;-60
2022/08/16 09:27:41;;;;;;;21.33;20.13;;;;;;;;;;5036824;28;20029;-60
2022/08/16 09:30:08;;;;;;;16.33;15.43;;;;;;;;;;5038092;28;20029;-60
2022/08/16 09:32:33;;;;;;;23.50;22.23;;;;;;;;;;5032823;28;20133;-60
2022/08/16 09:35:00;;;;;;;17.17;16.20;;;;;;;;;;5035322;28;20155;-60
2022/08/16 09:37:29;;;;;;;15.90;15.00;;;;;;;;;;5035176;28;20039;-61
2022/08/16 09:39:54;;;;;;;20.85;19.73;;;;;;;;;;5035131;28;20029;-60
2022/08/16 09:42:20;;;;;;;13.60;12.80;;;;;;;;;;5034537;28;20085;-60
2022/08/16 09:44:46;;;;;;;13.65;12.85;;;;;;;;;;5037803;28;20060;-59
2022/08/16 09:47:12;;;;;;;16.15;15.15;;;;;;;;;;5038242;28;20536;-60
2022/08/16 09:49:37;;;;;;;15.48;14.57;;;;;;;;;;5037475;28;20049;-59
2022/08/16 09:52:03;;;;;;;17.55;16.55;;;;;;;;;;5039157;28;20111;-60
2022/08/16 09:54:29;;;;;;;17.15;16.15;;;;;;;;;;5036596;28;20117;-60
2022/08/16 09:56:54;;;;;;;15.00;14.10;;;;;;;;;;5035613;28;20116;-60
2022/08/16 09:59:22;;;;;;;16.00;15.10;;;;;;;;;;5033092;28;20123;-60
2022/08/16 10:01:47;;;;;;;17.02;16.02;;;;;;;;;;5034751;28;20038;-60
2022/08/16 10:04:14;;;;;;;11.18;10.48;;;;;;;;;;5035586;28;20159;-59
2022/08/16 10:06:40;;;;;;;10.98;10.25;;;;;;;;;;5034171;28;20451;-59
2022/08/16 10:09:07;;;;;;;13.13;12.32;;;;;;;;;;5035125;28;20049;-59
2022/08/16 10:14:17;;;;;;;11.05;10.35;;;;;;;;;;5035059;28;20437;-59
2022/08/16 10:16:44;;;;;;;11.77;10.98;;;;;;;;;;5037999;28;20025;-59
2022/08/16 10:19:11;;;;;;;12.02;11.32;;;;;;;;;;5034935;28;20049;-59
2022/08/16 10:21:37;;;;;;;13.35;12.55;;;;;;;;;;5037820;28;20045;-59
2022/08/16 10:24:03;;;;;;;10.27;9.68;;;;;;;;;;5036260;28;20021;-60
2022/08/16 10:26:29;;;;;;;10.65;9.85;;;;;;;;;;5036228;28;20171;-59
2022/08/16 10:28:54;;;;;;;9.38;8.77;;;;;;;;;;5031607;28;20044;-59
2022/08/16 10:31:20;;;;;;;11.73;10.98;;;;;;;;;;5033084;28;20033;-59
2022/08/16 10:33:45;;;;;;;14.70;13.80;;;;;;;;;;5035047;28;20029;-59
2022/08/16 10:36:12;;;;;;;37.55;35.58;;;;;;;;;;5035192;28;20064;-59
2022/08/16 10:38:39;;;;;;;14.25;13.45;;;;;;;;;;5033450;28;20033;-59
2022/08/16 10:41:07;;;;;;;13.50;12.70;;;;;;;;;;5033689;28;20032;-60
2022/08/16 10:43:33;;;;;;;15.15;14.27;;;;;;;;;;5036410;28;20029;-60
2022/08/16 10:45:59;;;;;;;17.45;16.45;;;;;;;;;;5036856;28;20130;-59
2022/08/16 10:48:25;;;;;;;44.47;42.20;;;;;;;;;;5036869;28;20474;-59
2022/08/16 10:50:52;;;;;;;25.50;24.13;;;;;;;;;;5036488;28;20049;-59
2022/08/16 10:53:17;;;;;;;66.70;63.25;;;;;;;;;;5033939;28;20039;-59
2022/08/16 10:55:42;;;;;;;99.40;94.50;;;;;;;;;;5032690;28;20098;-59
2022/08/16 10:58:11;;;;;;;72.25;68.65;;;;;;;;;;5034529;28;20025;-60
2022/08/16 11:00:39;;;;;;;118.18;112.32;;;;;;;;;;5036112;28;20406;-59
2022/08/16 11:03:06;;;;;;;106.82;101.55;;;;;;;;;;5034162;28;20466;-60
2022/08/16 11:05:34;;;;;;;49.50;46.97;;;;;;;;;;5037423;28;20460;-60
2022/08/16 11:08:00;;;;;;;73.43;69.57;;;;;;;;;;5035338;28;20041;-59
2022/08/16 11:10:33;;;;;;;66.28;62.95;;;;;;;;;;5039962;28;20038;-60
2022/08/16 11:12:59;;;;;;;97.28;92.47;;;;;;;;;;5035040;28;20112;-60
2022/08/16 11:15:25;;;;;;;67.68;64.25;;;;;;;;;;5033792;28;20111;-60
2022/08/16 11:17:52;;;;;;;98.28;93.47;;;;;;;;;;5033775;28;20033;-60
2022/08/16 11:20:18;;;;;;;73.90;70.20;;;;;;;;;;5038114;28;20181;-60
2022/08/16 11:22:45;;;;;;;106.32;101.10;;;;;;;;;;5035883;28;20630;-59
2022/08/16 11:25:15;;;;;;;86.68;82.43;;;;;;;;;;5035150;28;20025;-59
2022/08/16 11:27:41;;;;;;;73.60;69.95;;;;;;;;;;5033975;28;20025;-59
2022/08/16 11:30:09;;;;;;;74.28;70.57;;;;;;;;;;5033309;28;20075;-59
2022/08/16 11:32:35;;;;;;;83.28;79.15;;;;;;;;;;5036883;28;20128;-59
2022/08/16 11:35:04;;;;;;;75.75;71.97;;;;;;;;;;5035932;28;20021;-59
2022/08/16 11:37:32;;;;;;;79.03;75.13;;;;;;;;;;5035258;28;20028;-60
2022/08/16 11:39:57;;;;;;;84.25;80.10;;;;;;;;;;5036190;28;20037;-59
2022/08/16 11:42:22;;;;;;;81.28;77.22;;;;;;;;;;5034469;28;20039;-59
2022/08/16 11:44:48;;;;;;;99.72;94.85;;;;;;;;;;5040245;28;20048;-60
2022/08/16 11:47:13;;;;;;;110.82;105.38;;;;;;;;;;5038425;28;20061;-60
2022/08/16 11:49:38;;;;;;;117.68;111.90;;;;;;;;;;5040136;28;20076;-59
2022/08/16 11:52:04;;;;;;;82.57;78.47;;;;;;;;;;5038302;28;20027;-59
2022/08/16 11:54:30;;;;;;;96.40;91.68;;;;;;;;;;5036681;28;20032;-59
2022/08/16 11:56:56;;;;;;;102.60;97.57;;;;;;;;;;5039865;28;20069;-59
2022/08/16 11:59:22;;;;;;;90.18;85.72;;;;;;;;;;5038881;28;20036;-59
2022/08/16 12:01:47;;;;;;;115.15;109.47;;;;;;;;;;5038017;28;20037;-60
2022/08/16 12:04:12;;;;;;;99.50;94.57;;;;;;;;;;5037543;28;20021;-59
2022/08/16 12:06:38;;;;;;;92.72;88.13;;;;;;;;;;5037916;28;20045;-59
2022/08/16 12:09:05;;;;;;;96.50;91.75;;;;;;;;;;5039199;28;20025;-60
2022/08/16 12:11:31;;;;;;;77.65;73.80;;;;;;;;;;5037874;28;20029;-60
2022/08/16 12:13:56;;;;;;;94.53;89.90;;;;;;;;;;5036570;28;20048;-60
2022/08/16 12:16:21;;;;;;;112.60;107.07;;;;;;;;;;5038799;28;20033;-59
2022/08/16 12:18:48;;;;;;;107.90;102.60;;;;;;;;;;5035559;28;20062;-59
2022/08/16 12:21:15;;;;;;;98.10;93.30;;;;;;;;;;5038626;28;20156;-60
2022/08/16 12:23:40;;;;;;;79.55;75.60;;;;;;;;;;5038259;28;20033;-59
2022/08/16 12:26:05;;;;;;;83.60;79.43;;;;;;;;;;5038525;28;20040;-59
2022/08/16 12:28:31;;;;;;;122.07;116.05;;;;;;;;;;5036477;28;20151;-60
2022/08/16 12:30:57;;;;;;;168.13;159.85;;;;;;;;;;5035285;28;20041;-59
2022/08/16 12:33:23;;;;;;;112.03;106.47;;;;;;;;;;5038855;28;20040;-59
2022/08/16 12:35:48;;;;;;;145.43;138.27;;;;;;;;;;5037481;28;20209;-59
2022/08/16 12:38:15;;;;;;;142.93;135.88;;;;;;;;;;5035923;28;20034;-60
2022/08/16 12:40:43;;;;;;;132.55;125.85;;;;;;;;;;5038711;28;20029;-60
2022/08/16 12:43:10;;;;;;;128.65;122.32;;;;;;;;;;5037647;28;20595;-60
2022/08/16 12:45:39;;;;;;;132.00;125.50;;;;;;;;;;5039572;28;20037;-60
2022/08/16 12:50:51;;;;;;;97.97;93.13;;;;;;;;;;5036077;28;20113;-59
2022/08/16 12:53:19;;;;;;;171.02;162.43;;;;;;;;;;5034392;28;20139;-60
2022/08/16 12:55:45;;;;;;;175.65;167.05;;;;;;;;;;5038564;28;20029;-59
2022/08/16 12:58:12;;;;;;;178.27;169.45;;;;;;;;;;5038650;28;20036;-59
2022/08/16 13:00:37;;;;;;;177.30;168.63;;;;;;;;;;5033784;28;20478;-60
2022/08/16 13:03:03;;;;;;;188.85;179.55;;;;;;;;;;5036131;28;20029;-60
2022/08/16 13:05:35;;;;;;;205.55;195.55;;;;;;;;;;5035144;28;20057;-60
2022/08/16 13:08:00;;;;;;;191.70;182.35;;;;;;;;;;5035026;28;20025;-60
2022/08/16 13:10:28;;;;;;;188.48;179.07;;;;;;;;;;5035015;28;20041;-60
2022/08/16 13:12:53;;;;;;;208.52;198.32;;;;;;;;;;5034640;28;20026;-60
2022/08/16 13:15:23;;;;;;;195.73;186.18;;;;;;;;;;5034846;28;20457;-61
2022/08/16 13:17:49;;;;;;;199.02;189.32;;;;;;;;;;5035424;28;20116;-60
2022/08/16 13:20:19;;;;;;;200.10;190.30;;;;;;;;;;5035994;28;20017;-60
2022/08/16 13:22:50;;;;;;;;;;;;;;;;;;5035435;28;20116;-60
2022/08/16 13:25:19;;;;;;;228.70;217.63;;;;;;;;;;5036337;28;20430;-60
2022/08/16 13:27:45;;;;;;;197.70;188.00;;;;;;;;;;5038392;28;20458;-60
2022/08/16 13:30:12;;;;;;;221.10;209.27;;;;;;;;;;5038362;28;20447;-60
2022/08/16 13:32:37;;;;;;;219.80;209.10;;;;;;;;;;5039416;28;20052;-60
2022/08/16 13:35:04;;;;;;;200.15;190.38;;;;;;;;;;5034375;28;20450;-60
2022/08/16 13:37:30;;;;;;;211.10;200.80;;;;;;;;;;5038544;28;20118;-59
2022/08/16 13:39:55;;;;;;;216.00;205.45;;;;;;;;;;5042105;28;20352;-60
2022/08/16 13:42:20;;;;;;;197.50;187.82;;;;;;;;;;5039229;28;20037;-59
2022/08/16 13:44:47;;;;;;;227.85;216.75;;;;;;;;;;5038165;28;20033;-60
2022/08/16 13:47:13;;;;;;;216.43;205.85;;;;;;;;;;5037123;28;20079;-60
2022/08/16 13:49:40;;;;;;;218.07;207.43;;;;;;;;;;5032363;28;20061;-60
2022/08/16 13:52:06;;;;;;;222.82;211.98;;;;;;;;;;5035331;28;20481;-60
2022/08/16 13:54:31;;;;;;;218.98;208.27;;;;;;;;;;5031638;28;20146;-60
2022/08/16 13:56:57;;;;;;;224.32;213.38;;;;;;;;;;5036530;28;20028;-60
2022/08/16 13:59:22;;;;;;;239.25;227.52;;;;;;;;;;5034649;28;20056;-60
2022/08/16 14:01:50;;;;;;;221.25;210.32;;;;;;;;;;5032094;28;20033;-60
2022/08/16 14:04:16;;;;;;;214.20;203.70;;;;;;;;;;5034602;28;20503;-60
2022/08/16 14:06:41;;;;;;;212.55;202.18;;;;;;;;;;5033137;28;20041;-60
2022/08/16 14:09:08;;;;;;;215.68;205.13;;;;;;;;;;5035974;28;20041;-60
2022/08/16 14:11:34;;;;;;;219.93;209.23;;;;;;;;;;5033701;28;20048;-60
2022/08/16 14:13:59;;;;;;;214.63;204.18;;;;;;;;;;5031830;28;20037;-60